sensor_id;sensor_type;location;lat;lon;timestamp;P1;durP1;ratioP1;P2;durP2;ratioP2
63664;SDS011;49820;33.966;73.390;2022-07-23T00:01:53;7.78;;;3.97;;
63664;SDS011;49820;33.966;73.390;2022-07-23T00:04:23;7.50;;;3.78;;
63664;SDS011;49820;33.966;73.390;2022-07-23T00:06:54;7.13;;;3.78;;
63664;SDS011;49820;33.966;73.390;2022-07-23T00:09:25;11.27;;;6.55;;
63664;SDS011;49820;33.966;73.390;2022-07-23T00:11:58;8.95;;;5.40;;
63664;SDS011;49820;33.966;73.390;2022-07-23T00:14:29;9.50;;;5.88;;
63664;SDS011;49820;33.966;73.390;2022-07-23T00:16:59;12.57;;;6.47;;
63664;SDS011;49820;33.966;73.390;2022-07-23T00:19:29;10.15;;;5.38;;
63664;SDS011;49820;33.966;73.390;2022-07-23T00:22:00;12.85;;;6.95;;
63664;SDS011;49820;33.966;73.390;2022-07-23T00:24:30;10.55;;;6.80;;
63664;SDS011;49820;33.966;73.390;2022-07-23T00:27:01;13.63;;;8.45;;
63664;SDS011;49820;33.966;73.390;2022-07-23T00:29:32;12.30;;;8.38;;
63664;SDS011;49820;33.966;73.390;2022-07-23T00:32:04;15.85;;;10.32;;
63664;SDS011;49820;33.966;73.390;2022-07-23T00:34:36;77.80;;;12.07;;
63664;SDS011;49820;33.966;73.390;2022-07-23T00:37:06;12.63;;;9.20;;
63664;SDS011;49820;33.966;73.390;2022-07-23T00:39:37;13.50;;;8.48;;
63664;SDS011;49820;33.966;73.390;2022-07-23T00:42:07;22.88;;;10.20;;
63664;SDS011;49820;33.966;73.390;2022-07-23T00:44:37;16.23;;;9.35;;
63664;SDS011;49820;33.966;73.390;2022-07-23T00:47:13;28.10;;;10.55;;
63664;SDS011;49820;33.966;73.390;2022-07-23T00:49:45;39.60;;;11.30;;
63664;SDS011;49820;33.966;73.390;2022-07-23T00:52:15;42.20;;;10.55;;
63664;SDS011;49820;33.966;73.390;2022-07-23T00:54:46;26.27;;;10.98;;
63664;SDS011;49820;33.966;73.390;2022-07-23T00:57:19;36.55;;;11.90;;
63664;SDS011;49820;33.966;73.390;2022-07-23T00:59:55;33.15;;;11.88;;
63664;SDS011;49820;33.966;73.390;2022-07-23T01:02:30;30.20;;;12.68;;
63664;SDS011;49820;33.966;73.390;2022-07-23T01:05:01;48.13;;;13.63;;
63664;SDS011;49820;33.966;73.390;2022-07-23T01:07:35;38.92;;;12.70;;
63664;SDS011;49820;33.966;73.390;2022-07-23T01:10:06;29.05;;;12.95;;
63664;SDS011;49820;33.966;73.390;2022-07-23T01:13:09;19.40;;;12.40;;
63664;SDS011;49820;33.966;73.390;2022-07-23T01:15:40;17.30;;;11.65;;
63664;SDS011;49820;33.966;73.390;2022-07-23T01:18:11;19.35;;;10.80;;
63664;SDS011;49820;33.966;73.390;2022-07-23T01:20:44;18.08;;;11.30;;
63664;SDS011;49820;33.966;73.390;2022-07-23T01:23:15;16.95;;;10.70;;
63664;SDS011;49820;33.966;73.390;2022-07-23T01:25:53;15.52;;;10.63;;
63664;SDS011;49820;33.966;73.390;2022-07-23T01:28:27;15.30;;;10.90;;
63664;SDS011;49820;33.966;73.390;2022-07-23T01:31:00;17.88;;;11.02;;
63664;SDS011;49820;33.966;73.390;2022-07-23T01:33:34;18.02;;;10.73;;
63664;SDS011;49820;33.966;73.390;2022-07-23T01:36:05;16.35;;;10.35;;
63664;SDS011;49820;33.966;73.390;2022-07-23T01:38:36;17.70;;;10.82;;
63664;SDS011;49820;33.966;73.390;2022-07-23T01:41:07;24.90;;;12.10;;
63664;SDS011;49820;33.966;73.390;2022-07-23T01:43:41;39.17;;;11.85;;
63664;SDS011;49820;33.966;73.390;2022-07-23T01:46:13;67.17;;;13.57;;
63664;SDS011;49820;33.966;73.390;2022-07-23T01:48:48;136.15;;;14.38;;
63664;SDS011;49820;33.966;73.390;2022-07-23T01:51:44;137.18;;;14.95;;
63664;SDS011;49820;33.966;73.390;2022-07-23T01:54:48;124.22;;;13.45;;
63664;SDS011;49820;33.966;73.390;2022-07-23T01:57:20;33.23;;;9.50;;
63664;SDS011;49820;33.966;73.390;2022-07-23T01:59:51;94.63;;;11.48;;
63664;SDS011;49820;33.966;73.390;2022-07-23T02:02:24;66.82;;;11.15;;
63664;SDS011;49820;33.966;73.390;2022-07-23T02:04:57;26.40;;;11.18;;
63664;SDS011;49820;33.966;73.390;2022-07-23T02:07:28;26.42;;;10.52;;
63664;SDS011;49820;33.966;73.390;2022-07-23T02:10:01;23.15;;;11.48;;
63664;SDS011;49820;33.966;73.390;2022-07-23T02:12:33;15.00;;;10.07;;
63664;SDS011;49820;33.966;73.390;2022-07-23T02:15:04;17.23;;;9.57;;
63664;SDS011;49820;33.966;73.390;2022-07-23T02:17:38;18.50;;;10.23;;
63664;SDS011;49820;33.966;73.390;2022-07-23T02:20:10;16.80;;;10.68;;
63664;SDS011;49820;33.966;73.390;2022-07-23T02:22:43;16.70;;;8.95;;
63664;SDS011;49820;33.966;73.390;2022-07-23T02:25:14;16.40;;;9.30;;
63664;SDS011;49820;33.966;73.390;2022-07-23T02:27:44;16.20;;;10.32;;
63664;SDS011;49820;33.966;73.390;2022-07-23T02:30:15;15.17;;;9.57;;
63664;SDS011;49820;33.966;73.390;2022-07-23T02:32:46;14.30;;;9.02;;
63664;SDS011;49820;33.966;73.390;2022-07-23T02:35:19;15.93;;;10.80;;
63664;SDS011;49820;33.966;73.390;2022-07-23T02:37:50;21.08;;;10.50;;
63664;SDS011;49820;33.966;73.390;2022-07-23T02:40:21;17.48;;;11.00;;
63664;SDS011;49820;33.966;73.390;2022-07-23T02:42:54;16.00;;;10.05;;
63664;SDS011;49820;33.966;73.390;2022-07-23T02:45:28;16.37;;;9.50;;
63664;SDS011;49820;33.966;73.390;2022-07-23T02:47:59;16.02;;;8.30;;
63664;SDS011;49820;33.966;73.390;2022-07-23T02:50:32;15.63;;;7.97;;
63664;SDS011;49820;33.966;73.390;2022-07-23T02:53:03;16.17;;;9.23;;
63664;SDS011;49820;33.966;73.390;2022-07-23T02:55:34;16.35;;;6.70;;
63664;SDS011;49820;33.966;73.390;2022-07-23T02:58:06;16.50;;;7.87;;
63664;SDS011;49820;33.966;73.390;2022-07-23T03:00:37;16.42;;;7.60;;
63664;SDS011;49820;33.966;73.390;2022-07-23T03:03:09;17.83;;;7.60;;
63664;SDS011;49820;33.966;73.390;2022-07-23T03:05:41;17.90;;;7.47;;
63664;SDS011;49820;33.966;73.390;2022-07-23T03:08:12;14.10;;;7.80;;
63664;SDS011;49820;33.966;73.390;2022-07-23T03:10:49;15.37;;;7.37;;
63664;SDS011;49820;33.966;73.390;2022-07-23T03:13:19;15.77;;;7.78;;
63664;SDS011;49820;33.966;73.390;2022-07-23T03:15:51;14.10;;;6.53;;
63664;SDS011;49820;33.966;73.390;2022-07-23T03:18:22;11.43;;;6.13;;
63664;SDS011;49820;33.966;73.390;2022-07-23T03:20:55;11.43;;;6.13;;
63664;SDS011;49820;33.966;73.390;2022-07-23T03:23:29;12.87;;;6.67;;
63664;SDS011;49820;33.966;73.390;2022-07-23T03:26:01;13.50;;;6.30;;
63664;SDS011;49820;33.966;73.390;2022-07-23T03:28:34;17.40;;;8.33;;
63664;SDS011;49820;33.966;73.390;2022-07-23T03:31:06;19.27;;;9.75;;
63664;SDS011;49820;33.966;73.390;2022-07-23T03:33:38;22.40;;;11.63;;
63664;SDS011;49820;33.966;73.390;2022-07-23T03:36:08;19.83;;;11.10;;
63664;SDS011;49820;33.966;73.390;2022-07-23T03:38:44;20.20;;;10.85;;
63664;SDS011;49820;33.966;73.390;2022-07-23T03:41:18;17.30;;;8.38;;
63664;SDS011;49820;33.966;73.390;2022-07-23T03:43:49;13.30;;;8.68;;
63664;SDS011;49820;33.966;73.390;2022-07-23T03:46:20;14.70;;;7.82;;
63664;SDS011;49820;33.966;73.390;2022-07-23T03:48:51;11.53;;;7.43;;
63664;SDS011;49820;33.966;73.390;2022-07-23T03:51:25;18.60;;;8.47;;
63664;SDS011;49820;33.966;73.390;2022-07-23T03:53:56;17.70;;;7.63;;
63664;SDS011;49820;33.966;73.390;2022-07-23T03:56:27;16.42;;;7.13;;
63664;SDS011;49820;33.966;73.390;2022-07-23T03:58:58;13.88;;;8.68;;
63664;SDS011;49820;33.966;73.390;2022-07-23T04:01:30;16.92;;;7.50;;
63664;SDS011;49820;33.966;73.390;2022-07-23T04:04:02;16.70;;;7.60;;
63664;SDS011;49820;33.966;73.390;2022-07-23T04:06:33;19.27;;;7.63;;
63664;SDS011;49820;33.966;73.390;2022-07-23T04:09:05;14.38;;;7.55;;
63664;SDS011;49820;33.966;73.390;2022-07-23T04:11:36;13.57;;;7.07;;
63664;SDS011;49820;33.966;73.390;2022-07-23T04:14:07;16.73;;;10.88;;
63664;SDS011;49820;33.966;73.390;2022-07-23T04:16:41;15.98;;;7.82;;
63664;SDS011;49820;33.966;73.390;2022-07-23T04:19:13;13.75;;;7.95;;
63664;SDS011;49820;33.966;73.390;2022-07-23T04:22:01;16.98;;;7.90;;
63664;SDS011;49820;33.966;73.390;2022-07-23T04:24:34;13.73;;;9.07;;
63664;SDS011;49820;33.966;73.390;2022-07-23T04:27:05;13.82;;;8.02;;
63664;SDS011;49820;33.966;73.390;2022-07-23T04:29:36;14.02;;;8.95;;
63664;SDS011;49820;33.966;73.390;2022-07-23T04:32:07;17.00;;;9.30;;
63664;SDS011;49820;33.966;73.390;2022-07-23T04:34:37;27.80;;;9.43;;
63664;SDS011;49820;33.966;73.390;2022-07-23T04:37:09;29.60;;;16.90;;
63664;SDS011;49820;33.966;73.390;2022-07-23T04:39:40;71.17;;;12.53;;
63664;SDS011;49820;33.966;73.390;2022-07-23T04:42:14;18.67;;;10.50;;
63664;SDS011;49820;33.966;73.390;2022-07-23T04:44:49;21.08;;;12.27;;
63664;SDS011;49820;33.966;73.390;2022-07-23T04:47:22;22.85;;;13.02;;
63664;SDS011;49820;33.966;73.390;2022-07-23T04:49:56;116.28;;;18.33;;
63664;SDS011;49820;33.966;73.390;2022-07-23T04:52:28;79.05;;;7.32;;
63664;SDS011;49820;33.966;73.390;2022-07-23T04:55:00;58.53;;;14.73;;
63664;SDS011;49820;33.966;73.390;2022-07-23T04:57:32;85.90;;;11.02;;
63664;SDS011;49820;33.966;73.390;2022-07-23T05:00:03;60.03;;;8.27;;
63664;SDS011;49820;33.966;73.390;2022-07-23T05:02:36;55.50;;;11.25;;
63664;SDS011;49820;33.966;73.390;2022-07-23T05:05:07;41.87;;;9.83;;
63664;SDS011;49820;33.966;73.390;2022-07-23T05:07:41;18.05;;;6.68;;
63664;SDS011;49820;33.966;73.390;2022-07-23T05:10:12;26.48;;;13.88;;
63664;SDS011;49820;33.966;73.390;2022-07-23T05:12:44;43.65;;;10.43;;
63664;SDS011;49820;33.966;73.390;2022-07-23T05:15:16;67.95;;;10.93;;
63664;SDS011;49820;33.966;73.390;2022-07-23T05:17:47;91.35;;;15.57;;
63664;SDS011;49820;33.966;73.390;2022-07-23T05:20:18;62.40;;;14.73;;
63664;SDS011;49820;33.966;73.390;2022-07-23T05:22:50;41.47;;;7.80;;
63664;SDS011;49820;33.966;73.390;2022-07-23T05:25:24;52.00;;;10.20;;
63664;SDS011;49820;33.966;73.390;2022-07-23T05:27:55;16.25;;;8.93;;
63664;SDS011;49820;33.966;73.390;2022-07-23T05:30:27;33.35;;;11.90;;
63664;SDS011;49820;33.966;73.390;2022-07-23T05:33:05;54.90;;;9.60;;
63664;SDS011;49820;33.966;73.390;2022-07-23T05:35:39;16.45;;;9.27;;
63664;SDS011;49820;33.966;73.390;2022-07-23T05:38:42;15.32;;;11.25;;
63664;SDS011;49820;33.966;73.390;2022-07-23T05:41:14;14.02;;;9.93;;
63664;SDS011;49820;33.966;73.390;2022-07-23T05:43:46;13.63;;;9.65;;
63664;SDS011;49820;33.966;73.390;2022-07-23T05:46:34;12.98;;;8.35;;
63664;SDS011;49820;33.966;73.390;2022-07-23T05:49:12;13.38;;;9.07;;
63664;SDS011;49820;33.966;73.390;2022-07-23T05:51:56;14.20;;;8.35;;
63664;SDS011;49820;33.966;73.390;2022-07-23T05:54:53;14.73;;;9.48;;
63664;SDS011;49820;33.966;73.390;2022-07-23T05:57:27;16.10;;;8.85;;
63664;SDS011;49820;33.966;73.390;2022-07-23T06:00:00;13.55;;;8.60;;
63664;SDS011;49820;33.966;73.390;2022-07-23T06:02:40;15.00;;;8.90;;
63664;SDS011;49820;33.966;73.390;2022-07-23T06:05:23;13.07;;;8.45;;
63664;SDS011;49820;33.966;73.390;2022-07-23T06:07:56;20.15;;;10.18;;
63664;SDS011;49820;33.966;73.390;2022-07-23T06:10:29;13.00;;;9.30;;
63664;SDS011;49820;33.966;73.390;2022-07-23T06:12:59;14.20;;;8.35;;
63664;SDS011;49820;33.966;73.390;2022-07-23T06:15:32;13.52;;;8.88;;
63664;SDS011;49820;33.966;73.390;2022-07-23T06:18:03;13.93;;;8.27;;
63664;SDS011;49820;33.966;73.390;2022-07-23T06:20:34;15.25;;;8.55;;
63664;SDS011;49820;33.966;73.390;2022-07-23T06:23:05;12.07;;;7.82;;
63664;SDS011;49820;33.966;73.390;2022-07-23T06:25:38;14.38;;;8.50;;
63664;SDS011;49820;33.966;73.390;2022-07-23T06:28:10;11.65;;;7.95;;
63664;SDS011;49820;33.966;73.390;2022-07-23T06:30:41;18.55;;;7.15;;
63664;SDS011;49820;33.966;73.390;2022-07-23T06:33:13;31.58;;;7.97;;
63664;SDS011;49820;33.966;73.390;2022-07-23T06:35:46;22.17;;;8.68;;
63664;SDS011;49820;33.966;73.390;2022-07-23T06:38:17;20.77;;;8.38;;
63664;SDS011;49820;33.966;73.390;2022-07-23T06:40:50;71.43;;;9.68;;
63664;SDS011;49820;33.966;73.390;2022-07-23T06:43:21;25.52;;;9.07;;
63664;SDS011;49820;33.966;73.390;2022-07-23T06:45:55;21.58;;;8.52;;
63664;SDS011;49820;33.966;73.390;2022-07-23T06:48:26;15.05;;;8.98;;
63664;SDS011;49820;33.966;73.390;2022-07-23T06:50:58;14.20;;;8.63;;
63664;SDS011;49820;33.966;73.390;2022-07-23T06:53:30;14.27;;;8.90;;
63664;SDS011;49820;33.966;73.390;2022-07-23T06:56:03;12.45;;;8.27;;
63664;SDS011;49820;33.966;73.390;2022-07-23T06:58:38;12.23;;;8.85;;
63664;SDS011;49820;33.966;73.390;2022-07-23T07:01:10;14.70;;;9.35;;
63664;SDS011;49820;33.966;73.390;2022-07-23T07:03:41;15.25;;;8.55;;
63664;SDS011;49820;33.966;73.390;2022-07-23T07:06:14;13.82;;;8.00;;
63664;SDS011;49820;33.966;73.390;2022-07-23T07:08:46;11.63;;;7.32;;
63664;SDS011;49820;33.966;73.390;2022-07-23T07:11:18;12.65;;;8.75;;
63664;SDS011;49820;33.966;73.390;2022-07-23T07:13:50;14.07;;;8.25;;
63664;SDS011;49820;33.966;73.390;2022-07-23T07:16:23;14.15;;;8.50;;
63664;SDS011;49820;33.966;73.390;2022-07-23T07:18:59;12.88;;;8.45;;
63664;SDS011;49820;33.966;73.390;2022-07-23T07:21:37;12.10;;;8.20;;
63664;SDS011;49820;33.966;73.390;2022-07-23T07:24:08;11.10;;;7.82;;
63664;SDS011;49820;33.966;73.390;2022-07-23T07:26:39;13.00;;;7.60;;
63664;SDS011;49820;33.966;73.390;2022-07-23T07:29:10;20.33;;;7.50;;
63664;SDS011;49820;33.966;73.390;2022-07-23T07:31:41;10.23;;;7.38;;
63664;SDS011;49820;33.966;73.390;2022-07-23T07:34:13;93.65;;;9.38;;
63664;SDS011;49820;33.966;73.390;2022-07-23T07:36:45;20.27;;;6.00;;
63664;SDS011;49820;33.966;73.390;2022-07-23T07:39:22;57.88;;;6.28;;
63664;SDS011;49820;33.966;73.390;2022-07-23T07:41:53;54.70;;;7.60;;
63664;SDS011;49820;33.966;73.390;2022-07-23T07:44:24;60.00;;;7.57;;
63664;SDS011;49820;33.966;73.390;2022-07-23T07:46:57;90.47;;;8.10;;
63664;SDS011;49820;33.966;73.390;2022-07-23T07:49:28;96.78;;;8.60;;
63664;SDS011;49820;33.966;73.390;2022-07-23T07:52:03;95.07;;;8.50;;
63664;SDS011;49820;33.966;73.390;2022-07-23T07:54:35;56.13;;;7.32;;
63664;SDS011;49820;33.966;73.390;2022-07-23T07:57:09;83.88;;;8.95;;
63664;SDS011;49820;33.966;73.390;2022-07-23T07:59:42;32.80;;;5.72;;
63664;SDS011;49820;33.966;73.390;2022-07-23T08:02:15;32.10;;;6.93;;
63664;SDS011;49820;33.966;73.390;2022-07-23T08:04:48;12.80;;;5.47;;
63664;SDS011;49820;33.966;73.390;2022-07-23T08:07:19;5.60;;;3.95;;
63664;SDS011;49820;33.966;73.390;2022-07-23T08:09:50;10.38;;;4.90;;
63664;SDS011;49820;33.966;73.390;2022-07-23T08:12:22;15.07;;;5.45;;
63664;SDS011;49820;33.966;73.390;2022-07-23T08:14:53;9.20;;;5.15;;
63664;SDS011;49820;33.966;73.390;2022-07-23T08:17:24;12.47;;;5.60;;
63664;SDS011;49820;33.966;73.390;2022-07-23T08:19:57;11.55;;;5.68;;
63664;SDS011;49820;33.966;73.390;2022-07-23T08:22:42;8.05;;;5.50;;
63664;SDS011;49820;33.966;73.390;2022-07-23T08:25:20;9.00;;;5.90;;
63664;SDS011;49820;33.966;73.390;2022-07-23T08:27:56;10.55;;;6.70;;
63664;SDS011;49820;33.966;73.390;2022-07-23T08:30:28;8.18;;;6.30;;
63664;SDS011;49820;33.966;73.390;2022-07-23T08:33:07;9.85;;;6.72;;
63664;SDS011;49820;33.966;73.390;2022-07-23T08:36:02;10.00;;;6.37;;
63664;SDS011;49820;33.966;73.390;2022-07-23T08:38:35;11.77;;;7.00;;
63664;SDS011;49820;33.966;73.390;2022-07-23T08:41:07;10.93;;;6.82;;
63664;SDS011;49820;33.966;73.390;2022-07-23T08:43:38;11.23;;;7.23;;
63664;SDS011;49820;33.966;73.390;2022-07-23T08:46:12;9.77;;;7.05;;
63664;SDS011;49820;33.966;73.390;2022-07-23T08:48:44;10.05;;;6.03;;
63664;SDS011;49820;33.966;73.390;2022-07-23T08:51:18;10.70;;;6.40;;
63664;SDS011;49820;33.966;73.390;2022-07-23T08:53:51;12.15;;;7.07;;
63664;SDS011;49820;33.966;73.390;2022-07-23T08:56:23;13.30;;;7.40;;
63664;SDS011;49820;33.966;73.390;2022-07-23T08:58:55;11.85;;;6.90;;
63664;SDS011;49820;33.966;73.390;2022-07-23T09:01:27;13.35;;;7.13;;
63664;SDS011;49820;33.966;73.390;2022-07-23T09:03:59;11.40;;;7.57;;
63664;SDS011;49820;33.966;73.390;2022-07-23T09:06:31;13.82;;;8.90;;
63664;SDS011;49820;33.966;73.390;2022-07-23T09:09:15;17.85;;;7.63;;
63664;SDS011;49820;33.966;73.390;2022-07-23T09:12:05;12.43;;;7.28;;
63664;SDS011;49820;33.966;73.390;2022-07-23T09:14:42;9.88;;;7.18;;
63664;SDS011;49820;33.966;73.390;2022-07-23T09:17:17;17.52;;;7.82;;
63664;SDS011;49820;33.966;73.390;2022-07-23T09:19:49;17.17;;;7.35;;
63664;SDS011;49820;33.966;73.390;2022-07-23T09:22:25;16.65;;;7.63;;
63664;SDS011;49820;33.966;73.390;2022-07-23T09:25:10;16.17;;;8.20;;
63664;SDS011;49820;33.966;73.390;2022-07-23T09:30:25;11.57;;;7.90;;
63664;SDS011;49820;33.966;73.390;2022-07-23T09:35:48;13.13;;;8.00;;
63664;SDS011;49820;33.966;73.390;2022-07-23T09:38:22;11.02;;;7.00;;
63664;SDS011;49820;33.966;73.390;2022-07-23T09:41:05;10.63;;;7.28;;
63664;SDS011;49820;33.966;73.390;2022-07-23T09:43:37;8.83;;;6.57;;
63664;SDS011;49820;33.966;73.390;2022-07-23T09:48:56;9.35;;;6.25;;
63664;SDS011;49820;33.966;73.390;2022-07-23T09:51:27;11.23;;;7.07;;
63664;SDS011;49820;33.966;73.390;2022-07-23T09:54:08;9.70;;;6.78;;
63664;SDS011;49820;33.966;73.390;2022-07-23T09:56:59;10.27;;;6.82;;
63664;SDS011;49820;33.966;73.390;2022-07-23T09:59:40;8.98;;;6.38;;
63664;SDS011;49820;33.966;73.390;2022-07-23T10:02:18;10.25;;;6.68;;
63664;SDS011;49820;33.966;73.390;2022-07-23T10:05:14;9.45;;;6.40;;
63664;SDS011;49820;33.966;73.390;2022-07-23T10:08:04;9.63;;;6.80;;
63664;SDS011;49820;33.966;73.390;2022-07-23T10:10:53;11.43;;;6.60;;
63664;SDS011;49820;33.966;73.390;2022-07-23T10:13:46;11.40;;;7.53;;
63664;SDS011;49820;33.966;73.390;2022-07-23T10:16:59;9.63;;;6.70;;
63664;SDS011;49820;33.966;73.390;2022-07-23T10:19:36;8.70;;;6.85;;
63664;SDS011;49820;33.966;73.390;2022-07-23T10:28:29;13.35;;;7.97;;
63664;SDS011;49820;33.966;73.390;2022-07-23T10:34:36;12.15;;;7.90;;
63664;SDS011;49820;33.966;73.390;2022-07-23T10:37:21;13.57;;;8.37;;
63664;SDS011;49820;33.966;73.390;2022-07-23T10:40:17;11.03;;;7.70;;
63664;SDS011;49820;33.966;73.390;2022-07-23T10:42:50;14.75;;;8.10;;
63664;SDS011;49820;33.966;73.390;2022-07-23T10:45:26;11.90;;;8.20;;
63664;SDS011;49820;33.966;73.390;2022-07-23T10:48:13;10.88;;;7.55;;
63664;SDS011;49820;33.966;73.390;2022-07-23T10:51:09;21.55;;;8.40;;
63664;SDS011;49820;33.966;73.390;2022-07-23T10:59:29;16.73;;;8.48;;
63664;SDS011;49820;33.966;73.390;2022-07-23T11:05:06;11.60;;;8.55;;
63664;SDS011;49820;33.966;73.390;2022-07-23T11:10:51;16.05;;;8.73;;
63664;SDS011;49820;33.966;73.390;2022-07-23T11:13:47;17.20;;;7.40;;
63664;SDS011;49820;33.966;73.390;2022-07-23T11:16:25;22.38;;;7.82;;
63664;SDS011;49820;33.966;73.390;2022-07-23T11:18:57;21.95;;;6.68;;
63664;SDS011;49820;33.966;73.390;2022-07-23T11:24:12;45.45;;;7.35;;
63664;SDS011;49820;33.966;73.390;2022-07-23T11:34:42;29.83;;;6.50;;
63664;SDS011;49820;33.966;73.390;2022-07-23T11:39:59;46.97;;;8.60;;
